Gloucester City, NJ (08030)

10:10 AM EDT on September 20, 2014 (GMT -0400)
West Collingswood Theatre District | Change Station
CLOSE
Current Station
Personal Weather Station
Location: Collingswood, NJ
Elevation: 23 ft
Nearby Weather Stations

Elev 23 ft 39.91 °N, 75.09 °W | Updated 54 seconds ago

Partly Cloudy
Partly Cloudy
71.5 °F
Feels Like 75 °F
N
0.0
Wind Variable Wind from South
Gusts 0.0 mph

Today
High -- | Low -- °F
--% Chance of Precip.
Yesterday
High -- | Low -- °F
Precip. -- in
6:46 AM 7:00 PM
Waning Crescent, 12% visible
Pressure 30.28 in
Visibility 10.0 miles
Clouds Few 2500 ft
Few 8500 ft
Heat Index 75 °F
Dew Point 60 °F
Humidity 67%
Rainfall 0.00 in
Snow Depth Not available.
UV 3 out of 12
Pollen 2.80 out of 12
Ozone Good
PM2.5 Moderate
Flu Activity Not available.
METAR KPHL 201354Z 10004KT 10SM FEW025 FEW085 21/15 A3028 RMK AO2 SLP252 T02060150

More Conditions Fewer Conditions

Pressure 30.28 in
Visibility 10.0 miles
Clouds Few 2500 ft
Few 8500 ft
Heat Index 75 °F
Dew Point 60 °F
Humidity 67%
Rainfall 0.00 in
Snow Depth Not available.
UV 3 out of 12
Pollen 2.80 out of 12
Ozone Good
PM2.5 Moderate
Flu Activity Not available.
METAR KPHL 201354Z 10004KT 10SM FEW025 FEW085 21/15 A3028 RMK AO2 SLP252 T02060150

More Conditions Fewer Conditions

10-Day Weather Forecast

Almanac

Astronomy

Sep. 20, 2014 Rise Set
Actual Time 6:46 AM EDT 7:00 PM EDT
Civil Twilight 6:19 AM EDT 7:27 PM EDT
Nautical Twilight 5:47 AM EDT 7:59 PM EDT
Astronomical Twilight 5:15 AM EDT 8:31 PM EDT
Moon 3:23 AM EDT 5:02 PM EDT
Length of Visible Light 13h 08m
Length of Day
12h 14m
Tomorrow will be 2m 36s shorter.
Waning Crescent, 12% of the Moon is Illuminated
Today
Waning Crescent
Sep 24
New
Oct 1
First Quarter
Oct 8
Full
Oct 15
Last Quarter

Today's Extremes

State Highs State Lows

Community

WunderPhotos

Upload Photos

1,754,870 photos uploaded!

Nearby

Air Quality

  Air Quality AQ Index Pollutant
Yesterday Good
PM2.5
Yesterday Good
OZONE
Current Moderate
PM2.5
Current Good
OZONE
Saturday Good
OZONE
Saturday Good
PM2.5
Sunday Good
OZONE
Sunday Good
PM2.5
Monday Good
OZONE
Monday Good
PM2.5

Snow Depth

Station Depth Elevation
No new snow has been reported.

Earthquake Activity

City Distance Mag. Time & Date
No recent earthquake activity has been reported nearby.
Minimum magnitude displayed is 2.5.

Coastal Water Temperatures

Place Temperature
Ship John Shoal, NJ 72.0 °F
Cape May, NJ 75.0 °F
Reedy Point, DE 73.0 °F
Delaware City, DE 72.0 °F
Marcus Hook, PA 73.0 °F

Nearby Weather Stations